createdAt,value
2022-11-20T00:00:05.215Z,101439.06
2022-11-20T00:02:06.682Z,101432.97
2022-11-20T00:04:09.857Z,101433.91
2022-11-20T00:06:17.251Z,101439.09
2022-11-20T00:08:18.674Z,101429.56
2022-11-20T00:10:20.123Z,101427.84
2022-11-20T00:12:21.569Z,101427.09
2022-11-20T00:14:23.034Z,101428.00
2022-11-20T00:16:26.348Z,101426.31
2022-11-20T00:18:28.349Z,101419.44
2022-11-20T00:20:29.846Z,101416.88
2022-11-20T00:22:31.277Z,101420.41
2022-11-20T00:24:32.702Z,101424.72
2022-11-20T00:26:34.522Z,101427.28
2022-11-20T00:28:35.982Z,101420.34
2022-11-20T00:30:37.407Z,101429.88
2022-11-20T00:32:38.854Z,101430.69
2022-11-20T00:34:40.288Z,101423.75
2022-11-20T00:36:41.737Z,101426.38
2022-11-20T00:38:43.940Z,101423.78
2022-11-20T00:40:45.372Z,101422.09
2022-11-20T00:42:46.846Z,101422.16
2022-11-20T00:44:48.297Z,101423.03
2022-11-20T00:46:49.737Z,101412.66
2022-11-20T00:48:51.227Z,101425.66
2022-11-20T00:50:53.288Z,101418.78
2022-11-20T00:52:54.712Z,101417.97
2022-11-20T00:54:56.139Z,101412.75
2022-11-20T00:56:57.698Z,101416.28
2022-11-20T00:59:01.051Z,101418.09
2022-11-20T01:01:03.374Z,101416.38
2022-11-20T01:03:04.855Z,101409.44
2022-11-20T01:05:06.527Z,101414.69
2022-11-20T01:07:08.000Z,101407.78
2022-11-20T01:09:13.388Z,101403.50
2022-11-20T01:11:24.559Z,101407.84
2022-11-20T01:13:38.088Z,101406.94
2022-11-20T01:15:39.551Z,101405.19
2022-11-20T01:17:40.974Z,101400.88
2022-11-20T01:19:42.418Z,101401.75
2022-11-20T01:21:45.212Z,101400.88
2022-11-20T01:23:48.027Z,101402.59
2022-11-20T01:25:49.464Z,101394.81
2022-11-20T01:27:50.935Z,101396.63
2022-11-20T01:29:55.725Z,101392.31
2022-11-20T01:31:59.767Z,101392.31
2022-11-20T01:34:03.572Z,101395.78
2022-11-20T01:36:06.864Z,101401.00
2022-11-20T01:38:08.319Z,101393.25
2022-11-20T01:40:10.521Z,101389.75
2022-11-20T01:42:30.232Z,101391.50
2022-11-20T01:44:55.219Z,101390.66
2022-11-20T01:47:04.934Z,101381.97
2022-11-20T01:49:21.179Z,101384.56
2022-11-20T01:51:28.693Z,101382.88
2022-11-20T01:53:34.401Z,101379.41
2022-11-20T01:55:40.818Z,101372.50
2022-11-20T01:57:45.108Z,101371.59
2022-11-20T01:59:58.000Z,101371.66
2022-11-20T02:01:59.548Z,101376.81
2022-11-20T02:04:02.311Z,101369.03
2022-11-20T02:06:15.530Z,101374.22
2022-11-20T02:08:18.378Z,101365.53
2022-11-20T02:10:19.841Z,101360.31
2022-11-20T02:12:40.184Z,101358.59
2022-11-20T02:14:41.679Z,101358.59
2022-11-20T02:16:48.683Z,101359.47
2022-11-20T02:18:51.339Z,101357.78
2022-11-20T02:21:04.586Z,101352.63
2022-11-20T02:23:13.078Z,101349.13
2022-11-20T02:25:15.568Z,101349.97
2022-11-20T02:27:17.969Z,101349.09
2022-11-20T02:29:43.131Z,101348.25
2022-11-20T02:31:44.739Z,101343.03
2022-11-20T02:33:46.448Z,101348.19
2022-11-20T02:35:48.259Z,101348.19
2022-11-20T02:37:52.200Z,101343.00
2022-11-20T02:39:53.649Z,101340.44
2022-11-20T02:41:56.745Z,101343.94
2022-11-20T02:43:58.214Z,101333.50
2022-11-20T02:45:59.835Z,101332.66
2022-11-20T02:48:01.502Z,101335.25
2022-11-20T02:50:04.014Z,101333.53
2022-11-20T02:52:05.529Z,101330.09
2022-11-20T02:54:07.039Z,101334.44
2022-11-20T02:56:08.486Z,101325.78
2022-11-20T02:58:10.026Z,101324.94
2022-11-20T03:00:12.145Z,101320.66
2022-11-20T03:02:13.582Z,101326.75
2022-11-20T03:04:15.179Z,101325.00
2022-11-20T03:06:17.867Z,101320.66
2022-11-20T03:08:19.318Z,101321.53
2022-11-20T03:10:20.809Z,101315.53
2022-11-20T03:12:22.424Z,101316.44
2022-11-20T03:14:23.887Z,101312.16
2022-11-20T03:16:25.333Z,101304.38
2022-11-20T03:18:29.902Z,101309.56
2022-11-20T03:20:32.993Z,101308.69
2022-11-20T03:22:34.457Z,101306.16
2022-11-20T03:24:36.081Z,101304.47
2022-11-20T03:26:37.516Z,101304.50
2022-11-20T03:28:39.258Z,101302.81
2022-11-20T03:30:40.672Z,101309.75
2022-11-20T03:32:42.566Z,101300.19
2022-11-20T03:34:44.027Z,101305.38
2022-11-20T03:36:45.478Z,101296.69
2022-11-20T03:38:48.021Z,101289.78
2022-11-20T03:40:49.792Z,101290.66
2022-11-20T03:42:51.257Z,101286.41
2022-11-20T03:44:52.691Z,101295.16
2022-11-20T03:46:54.142Z,101290.84
2022-11-20T03:48:55.823Z,101283.94
2022-11-20T03:51:15.806Z,101278.69
2022-11-20T03:53:17.610Z,101278.72
2022-11-20T03:55:19.079Z,101276.13
2022-11-20T03:57:20.570Z,101275.25
2022-11-20T03:59:22.195Z,101276.97
2022-11-20T04:01:26.623Z,101278.75
2022-11-20T04:03:28.173Z,101277.06
2022-11-20T04:05:29.632Z,101275.34
2022-11-20T04:07:31.138Z,101277.97
2022-11-20T04:09:32.578Z,101277.97
2022-11-20T04:11:36.355Z,101274.53
2022-11-20T04:13:38.076Z,101273.69
2022-11-20T04:15:39.528Z,101274.59
2022-11-20T04:17:41.066Z,101277.19
2022-11-20T04:19:42.577Z,101275.41
2022-11-20T04:21:45.354Z,101285.78
2022-11-20T04:23:46.827Z,101273.56
2022-11-20T04:25:48.246Z,101270.94
2022-11-20T04:27:49.674Z,101267.47
2022-11-20T04:29:51.116Z,101267.44
2022-11-20T04:31:52.657Z,101259.69
2022-11-20T04:33:54.671Z,101265.78
2022-11-20T04:35:56.239Z,101263.19
2022-11-20T04:37:57.664Z,101262.31
2022-11-20T04:39:59.134Z,101271.81
2022-11-20T04:42:19.327Z,101282.16
2022-11-20T04:44:20.901Z,101275.22
2022-11-20T04:46:22.322Z,101271.72
2022-11-20T04:48:25.170Z,101273.44
2022-11-20T04:50:26.725Z,101268.25
2022-11-20T04:52:28.170Z,101269.00
2022-11-20T04:54:29.647Z,101270.72
2022-11-20T04:56:31.201Z,101264.66
2022-11-20T04:58:33.305Z,101267.28
2022-11-20T05:00:35.035Z,101257.75
2022-11-20T05:02:36.571Z,101251.66
2022-11-20T05:04:38.130Z,101252.56
2022-11-20T05:06:39.553Z,101264.75
2022-11-20T05:08:42.022Z,101256.00
2022-11-20T05:10:43.455Z,101249.94
2022-11-20T05:12:44.868Z,101251.75
2022-11-20T05:14:46.347Z,101249.16
2022-11-20T05:16:48.019Z,101249.19
2022-11-20T05:18:50.387Z,101250.03
2022-11-20T05:20:56.230Z,101258.69
2022-11-20T05:22:58.531Z,101250.84
2022-11-20T05:25:00.002Z,101249.09
2022-11-20T05:27:01.483Z,101243.91
2022-11-20T05:29:03.033Z,101252.56
2022-11-20T05:31:06.920Z,101245.72
2022-11-20T05:33:08.990Z,101247.47
2022-11-20T05:35:10.461Z,101246.59
2022-11-20T05:37:11.947Z,101246.59
2022-11-20T05:39:13.417Z,101251.78
2022-11-20T05:41:17.655Z,101248.31
2022-11-20T05:43:19.307Z,101236.19
2022-11-20T05:45:20.819Z,101245.78
2022-11-20T05:47:23.396Z,101244.06
2022-11-20T05:49:24.909Z,101243.22
2022-11-20T05:51:27.625Z,101240.63
2022-11-20T05:53:29.512Z,101239.78
2022-11-20T05:55:30.971Z,101244.13
2022-11-20T05:57:32.801Z,101239.00
2022-11-20T05:59:34.307Z,101232.03
2022-11-20T06:01:37.083Z,101236.38
2022-11-20T06:03:39.974Z,101227.69
2022-11-20T06:05:41.416Z,101224.19
2022-11-20T06:07:42.936Z,101231.97
2022-11-20T06:09:44.418Z,101225.03
2022-11-20T06:11:45.843Z,101220.72
2022-11-20T06:13:47.978Z,101221.59
2022-11-20T06:15:54.127Z,101208.59
2022-11-20T06:17:56.151Z,101215.53
2022-11-20T06:19:57.788Z,101206.03
2022-11-20T06:21:59.346Z,101213.84
2022-11-20T06:24:00.875Z,101212.13
2022-11-20T06:26:07.939Z,101210.41
2022-11-20T06:28:10.102Z,101201.75
2022-11-20T06:30:12.219Z,101206.00
2022-11-20T06:32:13.645Z,101205.13
2022-11-20T06:34:15.267Z,101203.44
2022-11-20T06:36:19.372Z,101202.59
2022-11-20T06:38:20.822Z,101190.47
2022-11-20T06:40:22.285Z,101194.81
2022-11-20T06:42:23.801Z,101215.66
2022-11-20T06:44:25.563Z,101218.16
2022-11-20T06:46:27.066Z,101215.50
2022-11-20T06:48:29.618Z,101216.31
2022-11-20T06:50:31.193Z,101216.31
2022-11-20T06:52:32.612Z,101214.59
2022-11-20T06:54:34.069Z,101215.47
2022-11-20T06:56:35.516Z,101211.13
2022-11-20T06:58:37.912Z,101211.09
2022-11-20T07:00:39.418Z,101209.31
2022-11-20T07:02:40.917Z,101199.81
2022-11-20T07:04:42.370Z,101209.38
2022-11-20T07:06:43.797Z,101205.91
2022-11-20T07:08:45.313Z,101197.25
2022-11-20T07:10:46.763Z,101187.66
2022-11-20T07:12:52.531Z,101181.47
2022-11-20T07:14:53.997Z,101177.09
2022-11-20T07:16:56.008Z,101174.44
2022-11-20T07:18:57.603Z,101172.69
2022-11-20T07:21:03.502Z,101197.91
2022-11-20T07:23:05.003Z,101201.41
2022-11-20T07:25:07.544Z,101203.09
2022-11-20T07:27:09.093Z,101205.66
2022-11-20T07:29:10.690Z,101213.41
2022-11-20T07:31:18.840Z,101207.16
2022-11-20T07:33:21.263Z,101214.94
2022-11-20T07:35:23.987Z,101211.44
2022-11-20T07:37:25.427Z,101214.88
2022-11-20T07:39:26.864Z,101215.72
2022-11-20T07:41:28.675Z,101209.66
2022-11-20T07:43:30.558Z,101207.09
2022-11-20T07:45:32.088Z,101210.56
2022-11-20T07:47:37.640Z,101206.28
2022-11-20T07:49:39.074Z,101206.31
2022-11-20T07:51:40.494Z,101199.41
2022-11-20T07:53:41.943Z,101202.00
2022-11-20T07:55:43.361Z,101201.13
2022-11-20T07:57:45.045Z,101215.00
2022-11-20T07:59:47.086Z,101215.00
2022-11-20T08:01:48.554Z,101215.00
2022-11-20T08:03:50.026Z,101210.63
2022-11-20T08:05:51.545Z,101209.81
2022-11-20T08:07:53.030Z,101209.00
2022-11-20T08:09:54.477Z,101211.59
2022-11-20T08:12:14.975Z,101209.94
2022-11-20T08:14:16.847Z,101213.44
2022-11-20T08:16:18.310Z,101215.25
2022-11-20T08:18:35.406Z,101218.75
2022-11-20T08:20:36.922Z,101215.28
2022-11-20T08:22:38.380Z,101207.50
2022-11-20T08:24:39.897Z,101215.38
2022-11-20T08:26:42.067Z,101216.31
2022-11-20T08:28:43.702Z,101212.88
2022-11-20T08:30:46.857Z,101215.50
2022-11-20T08:32:48.290Z,101218.97
2022-11-20T08:34:49.721Z,101213.78
2022-11-20T08:36:51.199Z,101209.47
2022-11-20T08:38:55.182Z,101212.94
2022-11-20T08:41:19.242Z,101216.44
2022-11-20T08:43:20.666Z,101210.38
2022-11-20T08:45:22.147Z,101216.47
2022-11-20T08:47:23.558Z,101213.91
2022-11-20T08:49:25.103Z,101217.38
2022-11-20T08:51:26.602Z,101217.41
2022-11-20T08:53:28.756Z,101221.75
2022-11-20T08:55:30.184Z,101217.41
2022-11-20T08:57:36.406Z,101215.69
2022-11-20T09:00:04.273Z,101218.31
2022-11-20T09:01:59.539Z,101211.38
2022-11-20T09:04:01.019Z,101215.72
2022-11-20T09:06:04.456Z,101210.56
2022-11-20T09:08:06.352Z,101219.31
2022-11-20T09:10:25.068Z,101220.22
2022-11-20T09:12:26.758Z,101217.72
2022-11-20T09:14:30.085Z,101218.66
2022-11-20T09:16:31.561Z,101220.47
2022-11-20T09:18:33.925Z,101224.81
2022-11-20T09:20:35.415Z,101231.78
2022-11-20T09:22:40.935Z,101229.19
2022-11-20T09:24:43.695Z,101226.63
2022-11-20T09:26:45.737Z,101226.63
2022-11-20T09:28:47.244Z,101223.13
2022-11-20T09:30:48.969Z,101227.44
2022-11-20T09:32:50.443Z,101230.91
2022-11-20T09:34:51.943Z,101220.53
2022-11-20T09:36:53.492Z,101224.00
2022-11-20T09:38:55.082Z,101225.72
2022-11-20T09:41:05.894Z,101221.34
2022-11-20T09:43:34.698Z,101221.34
2022-11-20T09:45:46.881Z,101218.78
2022-11-20T09:48:10.158Z,101219.59
2022-11-20T09:50:37.509Z,101215.16
2022-11-20T09:52:50.811Z,101209.03
2022-11-20T09:54:54.248Z,101217.75
2022-11-20T09:57:06.264Z,101212.56
2022-11-20T09:59:15.339Z,101202.25
2022-11-20T10:01:19.639Z,101209.25
2022-11-20T10:03:37.178Z,101210.06
2022-11-20T10:05:45.095Z,101208.22
2022-11-20T10:07:56.567Z,101203.00
2022-11-20T10:09:58.298Z,101209.91
2022-11-20T10:12:18.235Z,101217.69
2022-11-20T10:14:41.489Z,101208.06
2022-11-20T10:16:57.438Z,101204.56
2022-11-20T10:19:04.745Z,101201.94
2022-11-20T10:21:12.408Z,101205.44
2022-11-20T10:23:25.379Z,101202.84
2022-11-20T10:25:56.301Z,101206.38
2022-11-20T10:28:13.813Z,101196.00
2022-11-20T10:30:17.980Z,101198.66
2022-11-20T10:32:23.616Z,101192.63
2022-11-20T10:34:34.823Z,101189.25
2022-11-20T10:36:43.991Z,101189.31
2022-11-20T10:38:58.258Z,101185.88
2022-11-20T10:41:22.418Z,101185.06
2022-11-20T10:43:34.362Z,101189.41
2022-11-20T10:45:41.809Z,101180.72
2022-11-20T10:47:43.291Z,101182.47
2022-11-20T10:49:49.702Z,101181.66
2022-11-20T10:52:18.554Z,101183.41
2022-11-20T10:54:37.676Z,101186.03
2022-11-20T10:56:46.859Z,101184.28
2022-11-20T10:59:06.237Z,101176.47
2022-11-20T11:01:20.143Z,101179.09
2022-11-20T11:03:31.771Z,101179.13
2022-11-20T11:05:41.007Z,101172.22
2022-11-20T11:07:43.169Z,101172.25
2022-11-20T11:09:50.217Z,101171.41
2022-11-20T11:11:52.445Z,101157.53
2022-11-20T11:13:53.913Z,101166.19
2022-11-20T11:15:56.452Z,101170.56
2022-11-20T11:17:58.294Z,101165.31
2022-11-20T11:19:59.675Z,101157.53
2022-11-20T11:22:01.935Z,101158.38
2022-11-20T11:24:27.043Z,101157.56
2022-11-20T11:26:26.959Z,101161.94
2022-11-20T11:28:29.589Z,101154.13
2022-11-20T11:30:42.636Z,101154.16
2022-11-20T11:32:44.383Z,101146.34
2022-11-20T11:34:46.002Z,101149.84
2022-11-20T11:36:57.077Z,101146.38
2022-11-20T11:38:58.611Z,101145.53
2022-11-20T11:41:00.176Z,101149.00
2022-11-20T11:43:05.969Z,101149.00
2022-11-20T11:45:07.849Z,101147.22
2022-11-20T11:47:32.974Z,101141.13
2022-11-20T11:49:34.457Z,101138.53
2022-11-20T11:51:48.619Z,101140.28
2022-11-20T11:53:51.277Z,101138.53
2022-11-20T11:55:59.500Z,101139.41
2022-11-20T11:58:20.668Z,101139.38
2022-11-20T12:00:23.223Z,101134.16
2022-11-20T12:02:33.938Z,101138.53
2022-11-20T12:04:56.088Z,101138.47
2022-11-20T12:07:44.203Z,101136.69
2022-11-20T12:09:42.534Z,101139.16
2022-11-20T12:12:17.513Z,101139.91
2022-11-20T12:14:27.682Z,101129.34
2022-11-20T12:16:34.821Z,101132.72
2022-11-20T12:18:36.282Z,101134.34
2022-11-20T12:20:51.387Z,101135.97
2022-11-20T12:23:01.503Z,101133.31
2022-11-20T12:25:07.957Z,101137.59
2022-11-20T12:27:24.499Z,101137.50
2022-11-20T12:29:49.029Z,101131.38
2022-11-20T12:32:02.221Z,101139.16
2022-11-20T12:34:19.315Z,101135.69
2022-11-20T12:36:31.078Z,101133.97
2022-11-20T12:38:41.647Z,101128.75
2022-11-20T12:41:04.832Z,101126.94
2022-11-20T12:43:46.908Z,101122.50
2022-11-20T12:46:23.289Z,101126.03
2022-11-20T12:48:44.991Z,101123.59
2022-11-20T12:51:16.109Z,101116.81
2022-11-20T12:53:35.809Z,101126.31
2022-11-20T12:55:53.626Z,101116.75
2022-11-20T12:58:02.786Z,101119.44
2022-11-20T13:00:14.799Z,101122.97
2022-11-20T13:02:16.192Z,101117.00
2022-11-20T13:04:47.787Z,101113.66
2022-11-20T13:06:50.051Z,101111.97
2022-11-20T13:08:59.974Z,101110.31
2022-11-20T13:11:17.060Z,101110.22
2022-11-20T13:13:43.308Z,101107.63
2022-11-20T13:15:53.873Z,101106.81
2022-11-20T13:17:57.708Z,101104.28
2022-11-20T13:19:59.748Z,101109.47
2022-11-20T13:22:01.591Z,101097.31
2022-11-20T13:24:07.211Z,101098.25
2022-11-20T13:26:19.797Z,101098.28
2022-11-20T13:28:21.188Z,101094.84
2022-11-20T13:30:24.786Z,101096.59
2022-11-20T13:32:28.751Z,101090.56
2022-11-20T13:34:31.070Z,101091.34
2022-11-20T13:36:33.465Z,101086.91
2022-11-20T13:38:47.579Z,101084.22
2022-11-20T13:41:21.988Z,101085.06
2022-11-20T13:43:30.026Z,101089.34
2022-11-20T13:45:33.422Z,101088.44
2022-11-20T13:47:36.862Z,101090.19
2022-11-20T13:49:49.154Z,101085.06
2022-11-20T13:51:54.167Z,101088.56
2022-11-20T13:54:07.666Z,101074.69
2022-11-20T13:56:24.094Z,101083.38
2022-11-20T13:58:49.022Z,101078.16
2022-11-20T14:01:02.355Z,101074.63
2022-11-20T14:03:06.515Z,101073.72
2022-11-20T14:05:20.923Z,101071.94
2022-11-20T14:07:26.752Z,101068.50
2022-11-20T14:09:35.180Z,101063.38
2022-11-20T14:11:36.651Z,101061.72
2022-11-20T14:13:38.081Z,101060.06
2022-11-20T14:15:44.807Z,101059.25
2022-11-20T14:17:46.738Z,101059.22
2022-11-20T14:19:51.365Z,101054.84
2022-11-20T14:22:07.268Z,101058.19
2022-11-20T14:24:12.838Z,101064.13
2022-11-20T14:26:21.243Z,101054.50
2022-11-20T14:28:28.429Z,101046.66
2022-11-20T14:30:41.234Z,101038.88
2022-11-20T14:32:44.249Z,101040.63
2022-11-20T14:34:48.845Z,101035.44
2022-11-20T14:36:55.002Z,101033.72
2022-11-20T14:38:56.531Z,101036.31
2022-11-20T14:41:20.424Z,101028.53
2022-11-20T14:43:27.090Z,101032.00
2022-11-20T14:45:29.177Z,101031.09
2022-11-20T14:47:32.079Z,101025.88
2022-11-20T14:49:34.173Z,101025.00
2022-11-20T14:51:42.273Z,101025.00
2022-11-20T14:53:43.739Z,101019.75
2022-11-20T14:55:45.203Z,101017.94
2022-11-20T14:57:56.895Z,101022.25
2022-11-20T15:00:28.156Z,101022.22
2022-11-20T15:02:31.236Z,101017.03
2022-11-20T15:04:32.854Z,101018.78
2022-11-20T15:06:34.629Z,101010.13
2022-11-20T15:08:36.272Z,101011.03
2022-11-20T15:10:39.186Z,101007.56
2022-11-20T15:12:52.907Z,101000.59
2022-11-20T15:14:54.397Z,101003.13
2022-11-20T15:16:56.212Z,100991.78
2022-11-20T15:18:57.746Z,100993.50
2022-11-20T15:21:03.419Z,100991.75
2022-11-20T15:23:12.465Z,100990.88
2022-11-20T15:25:15.817Z,100993.41
2022-11-20T15:27:17.331Z,100989.88
2022-11-20T15:29:19.853Z,100979.41
2022-11-20T15:31:24.131Z,100973.31
2022-11-20T15:33:25.772Z,100979.28
2022-11-20T15:35:27.267Z,100971.38
2022-11-20T15:37:30.082Z,100968.78
2022-11-20T15:39:31.656Z,100965.28
2022-11-20T15:41:33.107Z,100960.94
2022-11-20T15:43:34.562Z,100959.19
2022-11-20T15:45:42.768Z,100955.75
2022-11-20T15:47:44.275Z,100954.88
2022-11-20T15:49:45.717Z,100959.19
2022-11-20T15:51:50.902Z,100947.94
2022-11-20T15:53:52.470Z,100946.19
2022-11-20T15:55:54.283Z,100941.84
2022-11-20T15:57:55.728Z,100940.03
2022-11-20T15:59:57.176Z,100932.19
2022-11-20T16:01:58.675Z,100922.66
2022-11-20T16:04:01.112Z,100926.94
2022-11-20T16:06:02.615Z,100925.97
2022-11-20T16:08:08.532Z,100926.59
2022-11-20T16:10:11.568Z,100926.41
2022-11-20T16:12:35.839Z,100925.47
2022-11-20T16:14:55.901Z,100929.84
2022-11-20T16:16:57.362Z,100926.47
2022-11-20T16:18:59.184Z,100925.69
2022-11-20T16:21:00.703Z,100919.59
2022-11-20T16:23:02.213Z,100910.94
2022-11-20T16:25:03.864Z,100919.59
2022-11-20T16:27:05.371Z,100914.44
2022-11-20T16:29:07.569Z,100925.72
2022-11-20T16:31:11.614Z,100921.34
2022-11-20T16:33:16.313Z,100920.44
2022-11-20T16:35:17.922Z,100918.69
2022-11-20T16:37:19.350Z,100915.16
2022-11-20T16:39:23.908Z,100913.34
2022-11-20T16:41:26.745Z,100915.06
2022-11-20T16:43:28.361Z,100921.13
2022-11-20T16:45:33.708Z,100912.47
2022-11-20T16:47:35.788Z,100911.59
2022-11-20T16:49:37.240Z,100915.03
2022-11-20T16:51:38.710Z,100921.03
2022-11-20T16:53:40.665Z,100920.13
2022-11-20T16:55:42.124Z,100924.44
2022-11-20T16:57:43.581Z,100927.91
2022-11-20T16:59:45.023Z,100927.00
2022-11-20T17:01:46.663Z,100925.28
2022-11-20T17:04:01.395Z,100927.84
2022-11-20T17:06:02.905Z,100925.19
2022-11-20T17:08:04.705Z,100921.75
2022-11-20T17:10:06.569Z,100920.88
2022-11-20T17:12:08.098Z,100911.34
2022-11-20T17:14:11.691Z,100912.19
2022-11-20T17:16:21.758Z,100921.66
2022-11-20T17:18:23.469Z,100922.47
2022-11-20T17:20:25.039Z,100910.34
2022-11-20T17:22:26.619Z,100906.03
2022-11-20T17:24:31.826Z,100904.25
2022-11-20T17:26:34.800Z,100904.22
2022-11-20T17:28:37.788Z,100894.66
2022-11-20T17:30:39.239Z,100900.66
2022-11-20T17:32:45.578Z,100898.00
2022-11-20T17:34:47.007Z,100894.47
2022-11-20T17:36:48.563Z,100898.78
2022-11-20T17:38:50.014Z,100895.31
2022-11-20T17:40:51.544Z,100886.63
2022-11-20T17:42:52.991Z,100885.66
2022-11-20T17:44:54.465Z,100882.13
2022-11-20T17:46:55.913Z,100887.31
2022-11-20T17:48:57.448Z,100885.59
2022-11-20T17:51:03.987Z,100881.28
2022-11-20T17:53:05.546Z,100880.41
2022-11-20T17:55:07.533Z,100876.97
2022-11-20T17:57:27.953Z,100870.97
2022-11-20T17:59:29.384Z,100868.31
2022-11-20T18:01:30.877Z,100868.31
2022-11-20T18:03:32.372Z,100873.50
2022-11-20T18:05:33.825Z,100870.91
2022-11-20T18:07:40.266Z,100865.72
2022-11-20T18:09:43.172Z,100870.88
2022-11-20T18:11:45.439Z,100869.06
2022-11-20T18:14:07.724Z,100874.19
2022-11-20T18:16:09.265Z,100867.13
2022-11-20T18:18:10.699Z,100868.00
2022-11-20T18:20:30.317Z,100862.00
2022-11-20T18:22:32.680Z,100860.31
2022-11-20T18:24:36.637Z,100860.34
2022-11-20T18:26:43.912Z,100851.72
2022-11-20T18:28:46.018Z,100847.41
2022-11-20T18:30:47.590Z,100842.19
2022-11-20T18:32:50.124Z,100848.22
2022-11-20T18:34:51.591Z,100846.50
2022-11-20T18:36:53.146Z,100839.59
2022-11-20T18:38:56.948Z,100843.94
2022-11-20T18:41:03.414Z,100838.72
2022-11-20T18:43:24.666Z,100838.69
2022-11-20T18:45:26.256Z,100827.41
2022-11-20T18:47:30.774Z,100829.94
2022-11-20T18:49:32.275Z,100822.91
2022-11-20T18:51:33.789Z,100827.16
2022-11-20T18:53:36.095Z,100815.91
2022-11-20T18:55:37.585Z,100814.22
2022-11-20T18:57:39.066Z,100815.94
2022-11-20T18:59:42.650Z,100815.97
2022-11-20T19:01:44.354Z,100815.13
2022-11-20T19:03:46.810Z,100814.31
2022-11-20T19:05:48.276Z,100815.19
2022-11-20T19:07:49.799Z,100805.69
2022-11-20T19:09:53.093Z,100809.13
2022-11-20T19:11:54.851Z,100800.50
2022-11-20T19:13:56.544Z,100803.91
2022-11-20T19:16:05.810Z,100802.25
2022-11-20T19:18:07.309Z,100803.03
2022-11-20T19:20:09.122Z,100801.31
2022-11-20T19:22:10.669Z,100789.22
2022-11-20T19:24:12.474Z,100791.00
2022-11-20T19:26:14.070Z,100786.69
2022-11-20T19:28:15.593Z,100786.69
2022-11-20T19:30:17.357Z,100784.03
2022-11-20T19:32:18.927Z,100776.19
2022-11-20T19:34:20.502Z,100783.94
2022-11-20T19:36:25.430Z,100784.75
2022-11-20T19:38:26.871Z,100774.38
2022-11-20T19:40:28.535Z,100774.41
2022-11-20T19:42:30.858Z,100764.06
2022-11-20T19:44:33.040Z,100762.28
2022-11-20T19:46:36.253Z,100761.38
2022-11-20T19:48:38.293Z,100759.66
2022-11-20T19:50:39.754Z,100754.50
2022-11-20T19:52:41.879Z,100760.59
2022-11-20T19:54:43.333Z,100755.44
2022-11-20T19:56:45.552Z,100761.53
2022-11-20T19:58:47.221Z,100754.66
2022-11-20T20:00:48.674Z,100754.72
2022-11-20T20:02:50.115Z,100755.59
2022-11-20T20:04:51.559Z,100747.84
2022-11-20T20:06:53.027Z,100745.28
2022-11-20T20:09:06.489Z,100750.47
2022-11-20T20:11:15.253Z,100758.25
2022-11-20T20:13:16.676Z,100753.94
2022-11-20T20:15:18.119Z,100749.59
2022-11-20T20:17:19.573Z,100747.00
2022-11-20T20:19:21.046Z,100747.88
2022-11-20T20:21:22.639Z,100746.13
2022-11-20T20:23:24.061Z,100753.03
2022-11-20T20:25:25.480Z,100752.16
2022-11-20T20:27:26.921Z,100753.88
2022-11-20T20:29:28.403Z,100747.00
2022-11-20T20:31:32.431Z,100746.16
2022-11-20T20:33:33.904Z,100736.66
2022-11-20T20:35:39.680Z,100741.88
2022-11-20T20:37:41.199Z,100729.78
2022-11-20T20:39:42.636Z,100735.84
2022-11-20T20:41:44.102Z,100726.34
2022-11-20T20:44:04.310Z,100734.13
2022-11-20T20:46:07.878Z,100731.50
2022-11-20T20:48:09.344Z,100734.09
2022-11-20T20:50:11.907Z,100725.47
2022-11-20T20:52:13.604Z,100733.22
2022-11-20T20:54:15.075Z,100740.13
2022-11-20T20:56:17.702Z,100731.53
2022-11-20T20:58:19.160Z,100730.69
2022-11-20T21:00:22.193Z,100732.41
2022-11-20T21:02:24.141Z,100728.94
2022-11-20T21:04:25.666Z,100732.41
2022-11-20T21:06:27.289Z,100735.00
2022-11-20T21:08:29.310Z,100729.81
2022-11-20T21:10:31.296Z,100726.38
2022-11-20T21:12:32.753Z,100717.72
2022-11-20T21:14:34.726Z,100721.22
2022-11-20T21:16:41.196Z,100727.28
2022-11-20T21:18:42.749Z,100716.03
2022-11-20T21:21:04.550Z,100727.25
2022-11-20T21:23:10.471Z,100722.03
2022-11-20T21:25:11.953Z,100716.88
2022-11-20T21:27:13.393Z,100724.66
2022-11-20T21:29:15.534Z,100722.06
2022-11-20T21:31:21.889Z,100721.19
2022-11-20T21:33:23.316Z,100712.53
2022-11-20T21:35:24.811Z,100722.94
2022-11-20T21:37:26.252Z,100710.84
2022-11-20T21:39:27.761Z,100714.31
2022-11-20T21:41:31.070Z,100715.16
2022-11-20T21:43:32.941Z,100712.56
2022-11-20T21:45:34.377Z,100711.72
2022-11-20T21:47:35.866Z,100716.06
2022-11-20T21:49:39.110Z,100714.34
2022-11-20T21:51:40.613Z,100712.59
2022-11-20T21:53:43.240Z,100713.47
2022-11-20T21:55:53.226Z,100708.31
2022-11-20T21:57:54.703Z,100710.88
2022-11-20T21:59:56.158Z,100711.75
2022-11-20T22:01:57.686Z,100708.31
2022-11-20T22:04:02.037Z,100707.47
2022-11-20T22:06:04.847Z,100699.69
2022-11-20T22:08:06.421Z,100703.16
2022-11-20T22:10:08.223Z,100702.28
2022-11-20T22:12:09.673Z,100701.41
2022-11-20T22:14:20.450Z,100696.19
2022-11-20T22:16:22.947Z,100690.13
2022-11-20T22:18:24.383Z,100687.53
2022-11-20T22:20:25.942Z,100684.09
2022-11-20T22:22:27.393Z,100691.03
2022-11-20T22:24:28.850Z,100683.25
2022-11-20T22:26:39.659Z,100671.13
2022-11-20T22:28:42.806Z,100675.41
2022-11-20T22:30:44.237Z,100670.19
2022-11-20T22:32:45.672Z,100664.16
2022-11-20T22:34:47.142Z,100656.34
2022-11-20T22:36:48.642Z,100664.94
2022-11-20T22:38:50.246Z,100664.94
2022-11-20T22:40:51.693Z,100669.28
2022-11-20T22:42:53.148Z,100673.63
2022-11-20T22:44:54.599Z,100666.72
2022-11-20T22:46:56.065Z,100670.19
2022-11-20T22:49:02.806Z,100666.72
2022-11-20T22:51:06.665Z,100677.09
2022-11-20T22:53:08.660Z,100675.34
2022-11-20T22:55:13.622Z,100683.97
2022-11-20T22:57:17.711Z,100677.88
2022-11-20T22:59:19.209Z,100681.34
2022-11-20T23:01:22.164Z,100682.22
2022-11-20T23:03:23.686Z,100679.59
2022-11-20T23:05:25.175Z,100682.16
2022-11-20T23:07:26.696Z,100680.44
2022-11-20T23:09:28.563Z,100680.38
2022-11-20T23:11:31.975Z,100676.91
2022-11-20T23:13:34.806Z,100675.16
2022-11-20T23:15:36.334Z,100672.53
2022-11-20T23:17:37.779Z,100675.97
2022-11-20T23:19:39.247Z,100661.25
2022-11-20T23:21:42.090Z,100665.53
2022-11-20T23:23:47.877Z,100663.78
2022-11-20T23:25:49.335Z,100662.84
2022-11-20T23:27:50.765Z,100668.88
2022-11-20T23:29:52.206Z,100669.72
2022-11-20T23:31:53.712Z,100666.19
2022-11-20T23:33:55.444Z,100673.06
2022-11-20T23:35:57.226Z,100674.75
2022-11-20T23:37:58.687Z,100673.84
2022-11-20T23:40:00.130Z,100668.63
2022-11-20T23:42:01.576Z,100670.31
2022-11-20T23:44:03.047Z,100671.16